createdAt,value
2022-10-29T00:02:32.479Z,99102.34
2022-10-29T00:05:20.257Z,99107.00
2022-10-29T00:08:07.721Z,99113.44
2022-10-29T00:10:55.371Z,99104.06
2022-10-29T00:13:45.800Z,99107.00
2022-10-29T00:16:39.220Z,99105.47
2022-10-29T00:19:27.752Z,99105.63
2022-10-29T00:22:15.711Z,99111.25
2022-10-29T00:25:03.346Z,99104.25
2022-10-29T00:27:50.822Z,99100.19
2022-10-29T00:30:39.713Z,99100.34
2022-10-29T00:33:27.229Z,99090.78
2022-10-29T00:36:17.906Z,99093.69
2022-10-29T00:39:05.674Z,99095.53
2022-10-29T00:41:53.927Z,99101.16
2022-10-29T00:44:42.248Z,99119.25
2022-10-29T00:47:35.211Z,99122.19
2022-10-29T00:50:25.941Z,99115.03
2022-10-29T00:53:14.330Z,99119.66
2022-10-29T00:56:02.870Z,99111.81
2022-10-29T00:58:50.582Z,99119.78
2022-10-29T01:01:40.279Z,99113.78
2022-10-29T01:04:29.411Z,99108.75
2022-10-29T01:07:16.892Z,99097.38
2022-10-29T01:10:04.628Z,99088.69
2022-10-29T01:16:21.577Z,99088.28
2022-10-29T01:19:26.639Z,99080.16
2022-10-29T01:22:25.947Z,99084.25
2022-10-29T01:25:53.847Z,99080.72
2022-10-29T01:29:10.273Z,99076.53
2022-10-29T01:32:10.912Z,99075.97
2022-10-29T01:35:05.868Z,99070.91
2022-10-29T01:38:09.188Z,99086.03
2022-10-29T01:41:01.334Z,99084.66
2022-10-29T01:43:56.940Z,99088.56
2022-10-29T01:46:50.871Z,99072.88
2022-10-29T01:49:44.543Z,99069.53
2022-10-29T01:52:37.691Z,99061.81
2022-10-29T01:55:31.337Z,99064.75
2022-10-29T01:58:19.578Z,99072.88
2022-10-29T02:01:27.056Z,99076.66
2022-10-29T02:04:51.448Z,99074.28
2022-10-29T02:07:50.727Z,99063.91
2022-10-29T02:10:47.649Z,99058.88
2022-10-29T02:13:42.484Z,99061.13
2022-10-29T02:16:32.535Z,99061.41
2022-10-29T02:19:20.509Z,99066.00
2022-10-29T02:22:09.493Z,99061.97
2022-10-29T02:24:57.575Z,99062.94
2022-10-29T02:27:45.403Z,99055.25
2022-10-29T02:30:33.051Z,99061.66
2022-10-29T02:33:21.508Z,99055.78
2022-10-29T02:36:10.467Z,99053.41
2022-10-29T02:39:00.225Z,99056.34
2022-10-29T02:41:48.030Z,99049.34
2022-10-29T02:44:35.592Z,99048.91
2022-10-29T02:47:23.513Z,99046.53
2022-10-29T02:50:11.569Z,99042.19
2022-10-29T02:52:59.601Z,99040.78
2022-10-29T02:55:48.661Z,99042.72
2022-10-29T02:58:36.986Z,99040.34
2022-10-29T03:01:25.209Z,99031.66
2022-10-29T03:04:13.512Z,99038.94
2022-10-29T03:07:01.489Z,99041.75
2022-10-29T03:09:49.224Z,99037.38
2022-10-29T03:12:38.548Z,99030.41
2022-10-29T03:15:26.557Z,99025.22
2022-10-29T03:18:15.001Z,99030.81
2022-10-29T03:21:02.457Z,99026.88
2022-10-29T03:23:50.311Z,99036.13
2022-10-29T03:26:38.122Z,99040.03
2022-10-29T03:29:26.978Z,99035.84
2022-10-29T03:32:14.524Z,99039.44
2022-10-29T03:35:01.893Z,99041.00
2022-10-29T03:37:51.722Z,99043.81
2022-10-29T03:40:39.616Z,99043.22
2022-10-29T03:43:27.661Z,99039.16
2022-10-29T03:46:16.565Z,99035.53
2022-10-29T03:49:04.576Z,99042.78
2022-10-29T03:51:52.655Z,99056.19
2022-10-29T03:54:40.713Z,99048.38
2022-10-29T03:57:28.188Z,99054.75
2022-10-29T04:00:17.508Z,99049.72
2022-10-29T04:03:06.492Z,99057.00
2022-10-29T04:05:54.795Z,99062.56
2022-10-29T04:08:42.675Z,99063.66
2022-10-29T04:11:30.123Z,99070.09
2022-10-29T04:14:18.157Z,99061.44
2022-10-29T04:17:05.479Z,99067.81
2022-10-29T04:19:54.418Z,99072.44
2022-10-29T04:29:05.953Z,99075.88
2022-10-29T04:31:53.740Z,99081.47
2022-10-29T04:34:41.135Z,99077.25
2022-10-29T04:37:31.706Z,99078.34
2022-10-29T04:40:19.512Z,99081.13
2022-10-29T04:43:06.967Z,99087.56
2022-10-29T04:45:56.691Z,99080.84
2022-10-29T04:48:44.522Z,99087.22
2022-10-29T04:51:31.977Z,99087.50
2022-10-29T04:54:20.753Z,99079.69
2022-10-29T04:57:08.443Z,99082.59
2022-10-29T04:59:55.905Z,99072.09
2022-10-29T05:02:43.882Z,99071.25
2022-10-29T05:05:31.551Z,99075.97
2022-10-29T05:08:19.087Z,99077.94
2022-10-29T05:11:10.371Z,99070.09
2022-10-29T05:13:58.233Z,99069.13
2022-10-29T05:16:45.942Z,99074.56
2022-10-29T05:19:33.405Z,99071.03
2022-10-29T05:22:21.674Z,99067.44
2022-10-29T05:25:09.610Z,99067.06
2022-10-29T05:28:07.579Z,99067.88
2022-10-29T05:31:03.348Z,99075.72
2022-10-29T05:33:53.880Z,99072.78
2022-10-29T05:36:44.408Z,99082.34
2022-10-29T05:39:32.185Z,99071.03
2022-10-29T05:42:20.145Z,99082.25
2022-10-29T05:45:11.511Z,99082.25
2022-10-29T05:48:01.630Z,99081.25
2022-10-29T05:50:49.457Z,99087.56
2022-10-29T05:53:37.670Z,99079.59
2022-10-29T05:56:25.769Z,99076.66
2022-10-29T05:59:13.572Z,99081.72
2022-10-29T06:02:02.517Z,99085.09
2022-10-29T06:04:50.387Z,99088.44
2022-10-29T06:07:38.252Z,99090.56
2022-10-29T06:10:28.130Z,99086.66
2022-10-29T06:13:19.407Z,99089.91
2022-10-29T06:16:08.537Z,99103.34
2022-10-29T06:18:57.531Z,99092.59
2022-10-29T06:21:45.281Z,99094.84
2022-10-29T06:24:33.226Z,99095.44
2022-10-29T06:27:20.866Z,99093.22
2022-10-29T06:30:10.442Z,99101.78
2022-10-29T06:32:58.887Z,99111.19
2022-10-29T06:35:48.514Z,99120.59
2022-10-29T06:38:36.172Z,99125.72
2022-10-29T06:41:26.600Z,99123.19
2022-10-29T06:44:14.339Z,99113.75
2022-10-29T06:47:01.677Z,99119.09
2022-10-29T06:49:49.386Z,99102.00
2022-10-29T06:52:38.863Z,99108.47
2022-10-29T06:55:29.854Z,99104.38
2022-10-29T06:58:51.232Z,99106.78
2022-10-29T07:01:39.303Z,99101.31
2022-10-29T07:04:27.297Z,99103.69
2022-10-29T07:10:12.207Z,99118.97
2022-10-29T07:13:03.569Z,99118.00
2022-10-29T07:15:51.761Z,99109.03
2022-10-29T07:18:39.518Z,99102.25
2022-10-29T07:21:27.653Z,99102.81
2022-10-29T07:24:17.560Z,99117.13
2022-10-29T07:27:07.528Z,99121.78
2022-10-29T07:29:55.321Z,99122.47
2022-10-29T07:32:43.095Z,99127.22
2022-10-29T07:35:30.911Z,99119.09
2022-10-29T07:38:18.761Z,99122.19
2022-10-29T07:41:06.853Z,99125.38
2022-10-29T07:43:56.384Z,99128.59
2022-10-29T07:46:44.567Z,99126.59
2022-10-29T07:49:31.875Z,99124.03
2022-10-29T07:52:29.964Z,99125.84
2022-10-29T07:55:17.890Z,99130.44
2022-10-29T07:58:08.880Z,99120.44
2022-10-29T08:01:01.623Z,99120.56
2022-10-29T08:03:51.709Z,99124.72
2022-10-29T08:06:39.659Z,99124.41
2022-10-29T08:09:27.096Z,99126.03
2022-10-29T08:12:14.683Z,99121.78
2022-10-29T08:15:02.006Z,99113.72
2022-10-29T08:17:52.428Z,99117.16
2022-10-29T08:20:40.326Z,99112.91
2022-10-29T08:23:29.228Z,99114.00
2022-10-29T08:26:18.019Z,99121.88
2022-10-29T08:29:06.951Z,99114.38
2022-10-29T08:31:57.463Z,99118.34
2022-10-29T08:34:49.639Z,99124.00
2022-10-29T08:37:37.590Z,99129.63
2022-10-29T08:40:46.168Z,99125.56
2022-10-29T08:44:22.120Z,99121.16
2022-10-29T08:47:19.045Z,99117.78
2022-10-29T08:50:26.370Z,99120.00
2022-10-29T08:53:27.620Z,99119.00
2022-10-29T08:56:29.417Z,99121.69
2022-10-29T08:59:21.203Z,99124.75
2022-10-29T09:02:19.663Z,99128.94
2022-10-29T09:05:13.098Z,99128.47
2022-10-29T09:08:29.147Z,99126.16
2022-10-29T09:11:41.942Z,99114.81
2022-10-29T09:15:06.112Z,99123.69
2022-10-29T09:18:17.093Z,99118.56
2022-10-29T09:21:22.581Z,99114.22
2022-10-29T09:24:20.547Z,99117.75
2022-10-29T09:27:22.101Z,99103.88
2022-10-29T09:30:15.847Z,99106.22
2022-10-29T09:33:12.026Z,99107.22
2022-10-29T09:36:02.469Z,99100.72
2022-10-29T09:38:58.927Z,99099.56
2022-10-29T09:41:50.092Z,99088.53
2022-10-29T09:44:50.090Z,99094.53
2022-10-29T09:47:50.188Z,99078.75
2022-10-29T09:50:49.347Z,99088.13
2022-10-29T09:53:39.362Z,99077.72
2022-10-29T09:56:29.852Z,99074.63
2022-10-29T09:59:31.170Z,99070.78
2022-10-29T10:02:30.462Z,99065.03
2022-10-29T10:05:26.562Z,99057.34
2022-10-29T10:08:16.873Z,99046.38
2022-10-29T10:11:09.878Z,99036.75
2022-10-29T10:14:01.339Z,99027.59
2022-10-29T10:16:59.365Z,99016.44
2022-10-29T10:19:49.274Z,99011.34
2022-10-29T10:22:48.508Z,99007.25
2022-10-29T10:25:39.959Z,99007.69
2022-10-29T10:28:30.620Z,98999.28
2022-10-29T10:31:18.251Z,98990.31
2022-10-29T10:34:19.269Z,98987.41
2022-10-29T10:37:15.749Z,98990.44
2022-10-29T10:40:08.932Z,98973.09
2022-10-29T10:42:57.748Z,98978.22
2022-10-29T10:45:46.601Z,98968.75
2022-10-29T10:51:38.697Z,98959.00
2022-10-29T10:54:42.112Z,98955.72
2022-10-29T10:57:37.248Z,98957.84
2022-10-29T11:00:25.386Z,98943.97
2022-10-29T11:03:21.532Z,98969.38
2022-10-29T11:06:16.138Z,98967.06
2022-10-29T11:09:18.230Z,98971.63
2022-10-29T11:12:14.735Z,98942.94
2022-10-29T11:15:14.232Z,98937.06
2022-10-29T11:18:13.789Z,98939.47
2022-10-29T11:21:12.646Z,98931.06
2022-10-29T11:24:12.354Z,98930.84
2022-10-29T11:27:07.453Z,98926.06
2022-10-29T11:30:05.580Z,98918.09
2022-10-29T11:33:09.121Z,98922.81
2022-10-29T11:36:13.055Z,98911.38
2022-10-29T11:39:15.443Z,98915.16
2022-10-29T11:42:03.318Z,98932.91
2022-10-29T11:44:54.097Z,98921.19
2022-10-29T11:48:07.292Z,98900.03
2022-10-29T11:51:03.876Z,98896.03
2022-10-29T11:54:03.938Z,98922.06
2022-10-29T11:57:00.124Z,98917.19
2022-10-29T12:00:10.677Z,98901.53
2022-10-29T12:03:25.372Z,98915.03
2022-10-29T12:06:22.976Z,98902.44
2022-10-29T12:10:03.159Z,98890.97
2022-10-29T12:13:03.155Z,98883.97
2022-10-29T12:16:09.201Z,98861.81
2022-10-29T12:19:14.354Z,98862.84
2022-10-29T12:22:18.014Z,98863.16
2022-10-29T12:25:35.209Z,98831.84
2022-10-29T12:28:35.999Z,98855.88
2022-10-29T12:31:36.795Z,98827.81
2022-10-29T12:34:35.129Z,98833.66
2022-10-29T12:37:36.015Z,98863.06
2022-10-29T12:40:29.513Z,98846.75
2022-10-29T12:43:27.762Z,98855.81
2022-10-29T12:46:29.570Z,98832.34
2022-10-29T12:49:27.399Z,98821.59
2022-10-29T12:52:23.978Z,98821.00
2022-10-29T12:55:16.350Z,98807.72
2022-10-29T12:58:49.794Z,98805.59
2022-10-29T13:05:36.857Z,98804.75
2022-10-29T13:08:36.087Z,98788.25
2022-10-29T13:11:26.242Z,98786.03
2022-10-29T13:14:25.543Z,98776.94
2022-10-29T13:17:32.289Z,98774.28
2022-10-29T13:20:27.926Z,98772.28
2022-10-29T13:23:36.062Z,98771.66
2022-10-29T13:27:21.895Z,98769.50
2022-10-29T13:30:25.538Z,98777.22
2022-10-29T13:34:06.376Z,98782.13
2022-10-29T13:36:55.185Z,98779.59
2022-10-29T13:39:42.669Z,98778.53
2022-10-29T13:42:30.445Z,98775.06
2022-10-29T13:45:21.076Z,98772.03
2022-10-29T13:48:27.125Z,98777.81
2022-10-29T13:51:36.064Z,98792.53
2022-10-29T13:54:38.477Z,98799.91
2022-10-29T13:57:35.321Z,98777.84
2022-10-29T14:00:24.400Z,98779.19
2022-10-29T14:03:22.667Z,98766.06
2022-10-29T14:06:18.281Z,98769.06
2022-10-29T14:09:20.725Z,98770.25
2022-10-29T14:12:17.048Z,98781.31
2022-10-29T14:15:10.376Z,98771.47
2022-10-29T14:17:59.780Z,98754.56
2022-10-29T14:20:57.134Z,98767.94
2022-10-29T14:24:01.217Z,98758.78
2022-10-29T14:26:48.950Z,98777.91
2022-10-29T14:29:36.950Z,98792.50
2022-10-29T14:32:24.432Z,98791.81
2022-10-29T14:35:17.586Z,98764.72
2022-10-29T14:38:09.101Z,98786.94
2022-10-29T14:40:59.013Z,98783.63
2022-10-29T14:43:55.472Z,98768.88
2022-10-29T14:46:52.921Z,98787.25
2022-10-29T14:49:47.171Z,98796.88
2022-10-29T14:52:41.000Z,98786.06
2022-10-29T14:55:34.707Z,98788.88
2022-10-29T14:58:28.898Z,98774.19
2022-10-29T15:01:20.505Z,98790.50
2022-10-29T15:04:21.435Z,98790.94
2022-10-29T15:07:29.867Z,98787.22
2022-10-29T15:10:27.008Z,98797.25
2022-10-29T15:13:32.811Z,98788.53
2022-10-29T15:16:22.550Z,98789.63
2022-10-29T15:19:17.925Z,98789.91
2022-10-29T15:22:10.633Z,98796.63
2022-10-29T15:25:04.913Z,98794.16
2022-10-29T15:27:54.812Z,98798.38
2022-10-29T15:30:43.278Z,98803.19
2022-10-29T15:33:33.474Z,98799.88
2022-10-29T15:36:22.990Z,98799.50
2022-10-29T15:39:23.035Z,98804.75
2022-10-29T15:42:23.112Z,98798.31
2022-10-29T15:45:22.002Z,98796.50
2022-10-29T15:48:37.038Z,98794.84
2022-10-29T15:51:29.374Z,98797.56
2022-10-29T15:54:17.179Z,98794.03
2022-10-29T15:57:05.426Z,98787.56
2022-10-29T15:59:57.296Z,98793.59
2022-10-29T16:02:46.720Z,98786.53
2022-10-29T16:05:34.484Z,98790.88
2022-10-29T16:08:29.284Z,98790.22
2022-10-29T16:11:20.810Z,98799.09
2022-10-29T16:14:11.268Z,98801.75
2022-10-29T16:16:58.836Z,98803.38
2022-10-29T16:19:48.034Z,98797.09
2022-10-29T16:22:35.723Z,98804.91
2022-10-29T16:25:28.649Z,98802.34
2022-10-29T16:28:16.116Z,98802.28
2022-10-29T16:31:03.730Z,98800.94
2022-10-29T16:33:53.848Z,98805.25
2022-10-29T16:36:44.939Z,98804.97
2022-10-29T16:39:35.270Z,98812.09
2022-10-29T16:42:32.057Z,98818.84
2022-10-29T16:45:24.346Z,98811.69
2022-10-29T16:48:11.738Z,98813.25
2022-10-29T16:50:59.368Z,98815.41
2022-10-29T16:53:48.424Z,98815.06
2022-10-29T16:56:36.169Z,98816.59
2022-10-29T16:59:24.428Z,98818.97
2022-10-29T17:02:13.044Z,98824.81
2022-10-29T17:05:00.763Z,98832.34
2022-10-29T17:07:48.550Z,98826.63
2022-10-29T17:10:38.353Z,98827.09
2022-10-29T17:13:26.154Z,98825.72
2022-10-29T17:16:16.353Z,98835.06
2022-10-29T17:19:04.228Z,98833.66
2022-10-29T17:21:52.310Z,98829.38
2022-10-29T17:24:39.962Z,98831.50
2022-10-29T17:27:31.379Z,98839.00
2022-10-29T17:30:19.089Z,98840.09
2022-10-29T17:33:07.231Z,98836.84
2022-10-29T17:36:05.455Z,98850.31
2022-10-29T17:38:53.224Z,98849.56
2022-10-29T17:41:41.441Z,98853.13
2022-10-29T17:44:32.169Z,98866.63
2022-10-29T17:47:23.195Z,98864.81
2022-10-29T17:50:13.762Z,98873.75
2022-10-29T17:53:01.753Z,98872.78
2022-10-29T17:55:50.002Z,98871.00
2022-10-29T17:58:51.884Z,98870.88
2022-10-29T18:01:42.462Z,98873.59
2022-10-29T18:04:30.076Z,98865.59
2022-10-29T18:07:17.549Z,98864.63
2022-10-29T18:10:06.102Z,98870.84
2022-10-29T18:12:54.037Z,98873.41
2022-10-29T18:15:41.717Z,98872.44
2022-10-29T18:18:38.288Z,98871.47
2022-10-29T18:21:35.903Z,98868.78
2022-10-29T18:24:24.256Z,98867.81
2022-10-29T18:27:19.668Z,98871.31
2022-10-29T18:30:09.497Z,98870.34
2022-10-29T18:32:57.522Z,98864.81
2022-10-29T18:35:46.881Z,98861.16
2022-10-29T18:38:37.587Z,98862.00
2022-10-29T18:41:26.871Z,98863.53
2022-10-29T18:44:14.792Z,98864.22
2022-10-29T18:47:02.571Z,98863.88
2022-10-29T18:49:50.099Z,98864.56
2022-10-29T18:52:41.408Z,98871.25
2022-10-29T18:55:33.653Z,98877.94
2022-10-29T18:58:24.316Z,98871.44
2022-10-29T19:01:14.895Z,98880.66
2022-10-29T19:04:07.292Z,98872.94
2022-10-29T19:06:55.633Z,98861.72
2022-10-29T19:09:44.671Z,98855.88
2022-10-29T19:12:32.362Z,98871.44
2022-10-29T19:15:19.925Z,98863.91
2022-10-29T19:18:08.300Z,98850.19
2022-10-29T19:20:55.903Z,98852.03
2022-10-29T19:23:46.315Z,98854.06
2022-10-29T19:26:37.094Z,98859.72
2022-10-29T19:29:24.958Z,98853.88
2022-10-29T19:32:12.837Z,98847.31
2022-10-29T19:35:00.323Z,98853.97
2022-10-29T19:37:48.028Z,98853.47
2022-10-29T19:40:35.516Z,98854.13
2022-10-29T19:43:25.094Z,98863.50
2022-10-29T19:46:16.716Z,98857.78
2022-10-29T19:49:05.864Z,98853.78
2022-10-29T19:51:53.355Z,98856.09
2022-10-29T19:54:41.806Z,98856.75
2022-10-29T19:57:30.840Z,98862.75
2022-10-29T20:00:23.749Z,98858.06
2022-10-29T20:03:12.581Z,98862.03
2022-10-29T20:06:00.686Z,98868.03
2022-10-29T20:08:48.083Z,98870.50
2022-10-29T20:11:35.632Z,98867.47
2022-10-29T20:14:28.784Z,98868.97
2022-10-29T20:17:18.291Z,98864.09
2022-10-29T20:20:08.867Z,98874.44
2022-10-29T20:22:59.498Z,98873.22
2022-10-29T20:25:50.556Z,98874.69
2022-10-29T20:28:50.331Z,98875.00
2022-10-29T20:31:45.351Z,98873.81
2022-10-29T20:34:36.633Z,98871.63
2022-10-29T20:37:24.237Z,98866.75
2022-10-29T20:40:13.989Z,98872.72
2022-10-29T20:43:01.559Z,98873.84
2022-10-29T20:45:49.419Z,98869.97
2022-10-29T20:48:36.958Z,98878.13
2022-10-29T20:51:26.399Z,98863.59
2022-10-29T20:54:14.342Z,98865.56
2022-10-29T20:57:03.438Z,98876.88
2022-10-29T20:59:53.012Z,98880.84
2022-10-29T21:02:40.530Z,98881.16
2022-10-29T21:05:28.256Z,98876.13
2022-10-29T21:08:17.043Z,98877.28
2022-10-29T21:11:07.581Z,98874.06
2022-10-29T21:13:55.362Z,98877.91
2022-10-29T21:16:43.052Z,98876.53
2022-10-29T21:19:30.653Z,98869.81
2022-10-29T21:22:19.267Z,98872.78
2022-10-29T21:25:09.406Z,98869.59
2022-10-29T21:27:57.004Z,98866.41
2022-10-29T21:30:45.364Z,98863.22
2022-10-29T21:33:33.229Z,98868.00
2022-10-29T21:36:21.099Z,98868.47
2022-10-29T21:39:08.781Z,98862.75
2022-10-29T21:41:57.611Z,98871.22
2022-10-29T21:44:46.502Z,98868.00
2022-10-29T21:47:33.937Z,98868.31
2022-10-29T21:50:21.443Z,98867.91
2022-10-29T21:53:09.837Z,98872.44
2022-10-29T21:55:58.171Z,98870.22
2022-10-29T21:58:46.950Z,98867.00
2022-10-29T22:01:34.706Z,98866.50
2022-10-29T22:04:22.592Z,98858.09
2022-10-29T22:07:10.880Z,98862.72
2022-10-29T22:09:58.731Z,98868.34
2022-10-29T22:12:46.065Z,98866.69
2022-10-29T22:15:34.923Z,98873.00
2022-10-29T22:18:22.684Z,98863.50
2022-10-29T22:21:15.418Z,98874.31
2022-10-29T22:24:03.216Z,98866.31
2022-10-29T22:26:50.481Z,98869.13
2022-10-29T22:29:38.044Z,98861.13
2022-10-29T22:32:27.051Z,98865.63
2022-10-29T22:35:14.752Z,98863.94
2022-10-29T22:38:02.504Z,98856.09
2022-10-29T22:40:50.136Z,98862.25
2022-10-29T22:43:38.775Z,98860.44
2022-10-29T22:46:28.864Z,98849.94
2022-10-29T22:49:17.818Z,98846.41
2022-10-29T22:52:05.936Z,98844.59
2022-10-29T22:54:53.986Z,98848.25
2022-10-29T22:57:41.666Z,98838.44
2022-10-29T23:00:29.540Z,98842.94
2022-10-29T23:03:16.943Z,98837.59
2022-10-29T23:06:08.089Z,98841.09
2022-10-29T23:08:58.229Z,98838.44
2022-10-29T23:11:45.927Z,98833.94
2022-10-29T23:14:33.295Z,98839.28
2022-10-29T23:17:20.629Z,98839.28
2022-10-29T23:20:08.828Z,98843.59
2022-10-29T23:22:58.230Z,98847.13
2022-10-29T23:25:46.214Z,98842.78
2022-10-29T23:28:38.833Z,98833.94
2022-10-29T23:31:28.516Z,98846.28
2022-10-29T23:34:15.997Z,98835.63
2022-10-29T23:37:05.752Z,98840.94
2022-10-29T23:39:58.872Z,98838.97
2022-10-29T23:42:46.339Z,98841.94
2022-10-29T23:45:33.763Z,98836.63
2022-10-29T23:48:21.259Z,98829.63
2022-10-29T23:51:09.183Z,98823.28
2022-10-29T23:53:57.691Z,98824.97
2022-10-29T23:56:46.730Z,98819.78
2022-10-29T23:59:34.071Z,98822.59
